Flight Track Log - Related Links

Times and Time Zones

All times are in EDT time to prevent confusion due to time zone crossing. See the N566UA flight status page for this flight to view local times or setup timezone preferences in your user account.

Time Position Orientation Groundspeed Altitude Reporting Facility
EDT Latitude Longitude Course Direction KTS MPH feet Rate Location/Type
Thu 12:34:03 PM 39.8333 -104.7500 166° South 203 234 6,500  Level Denver TRACON
Thu 12:35:03 PM 39.8167 -104.8333 255° West 248 285 8,800 2,031 Climbing Denver TRACON
Thu 12:36:00 PM 39.6002 -104.3833 163° South  Level Estimated
Thu 12:36:10 PM 39.7586 -104.8956 219° Southwest 294 338 10,800  Level Denver Center
Thu 12:37:00 PM 39.5129 -104.2871 159° South  Level Estimated
Thu 12:37:12 PM 39.6592 -104.8983 181° South 332 382 13,300  Level Denver Center
Thu 12:38:00 PM 39.4255 -104.1912 161° South  Level Estimated
Thu 12:38:14 PM 39.5644 -104.8736 169° South 346 398 15,900  Level Denver Center
Thu 12:39:00 PM 39.3380 -104.0956 166° South  Level Estimated
Thu 12:39:16 PM 39.4567 -104.8453 169° South 365 420 17,900  Level Denver Center
Thu 12:40:18 PM 39.3469 -104.8172 169° South 399 459 19,600 1,839 Climbing Denver Center
Thu 12:41:20 PM 39.2297 -104.7864 168° South 428 493 21,700 1,887 Climbing Denver Center
Thu 12:42:22 PM 39.1164 -104.7608 170° South 428 493 23,500 1,839 Climbing Denver Center
Thu 12:43:24 PM 38.9861 -104.7136 164° South 429 494 25,500 1,645 Climbing Denver Center
Thu 12:44:26 PM 38.8700 -104.6656 162° South 450 518 26,900 1,452 Climbing Denver Center
Thu 12:45:28 PM 38.7383 -104.6064 161° South 447 514 28,500 1,500 Climbing Denver Center
Thu 12:46:30 PM 38.6189 -104.5589 163° South 463 533 30,000 1,597 Climbing Denver Center
Thu 12:47:32 PM 38.4808 -104.5014 162° South 466 536 31,800 1,694 Climbing Denver Center
Thu 12:48:34 PM 38.3644 -104.4567 163° South 460 529 33,500 1,500 Climbing Denver Center
Thu 12:49:36 PM 38.2361 -104.3814 155° Southeast 461 531 34,900 726 Climbing Denver Center
Thu 12:50:38 PM 38.1283 -104.3172 155° Southeast 451 519 35,000 532 Climbing Denver Center
Thu 12:51:40 PM 37.9914 -104.2842 169° South 451 519 36,000 816 Climbing Denver Center
Thu 12:52:43 PM 37.8744 -104.2556 169° South 447 514 36,700 480 Climbing Denver Center
Thu 12:53:45 PM 37.7375 -104.2217 169° South 449 517 37,000 145 Climbing Denver Center
Thu 12:54:47 PM 37.6200 -104.1922 169° South 453 521 37,000  Level Denver Center
Thu 12:55:49 PM 37.4858 -104.1583 169° South 449 517 37,000  Level Denver Center
Thu 12:56:51 PM 37.3719 -104.1297 169° South 444 511 37,000  Level Denver Center
Thu 12:57:53 PM 37.2392 -104.0961 169° South 439 505 37,000  Level Denver Center
Thu 12:58:55 PM 37.1239 -104.0672 169° South 440 506 37,000  Level Denver Center
Thu 12:59:22 PM 37.0675 -104.0533 169° South 439 505 37,000  Level Albuquerque Center
Thu 01:00:24 PM 36.9353 -104.0217 169° South 434 499 37,000  Level Albuquerque Center
Thu 01:01:26 PM 36.8222 -103.9953 169° South 431 496 37,000  Level Albuquerque Center
Thu 01:02:28 PM 36.6886 -103.9633 169° South 435 501 37,000  Level Albuquerque Center
Thu 01:03:30 PM 36.5697 -103.9358 169° South 438 504 37,000  Level Albuquerque Center
Thu 01:04:32 PM 36.4450 -103.9028 168° South 450 518 37,000  Level Albuquerque Center
Thu 01:05:34 PM 36.3197 -103.8728 169° South 454 522 37,000  Level Albuquerque Center
Thu 01:06:36 PM 36.1944 -103.8425 169° South 454 522 37,000  Level Albuquerque Center
Thu 01:07:38 PM 36.0694 -103.8094 168° South 454 522 37,000  Level Albuquerque Center
Thu 01:08:40 PM 35.9233 -103.7744 169° South 453 521 37,000  Level Albuquerque Center
Thu 01:09:42 PM 35.7992 -103.7442 169° South 451 519 37,000  Level Albuquerque Center
Thu 01:10:44 PM 35.6753 -103.7142 169° South 449 517 37,000  Level Albuquerque Center
Thu 01:11:46 PM 35.5503 -103.6847 169° South 449 517 37,000  Level Albuquerque Center
Thu 01:12:48 PM 35.4236 -103.6553 169° South 453 521 37,000  Level Albuquerque Center
Thu 01:13:50 PM 35.2978 -103.6261 169° South 453 521 37,000  Level Albuquerque Center
Thu 01:14:53 PM 35.1731 -103.5861 165° South 457 526 37,000  Level Albuquerque Center
Thu 01:15:55 PM 35.0608 -103.5039 149° Southeast 464 534 37,000  Level Albuquerque Center
Thu 01:16:57 PM 34.9522 -103.4164 147° Southeast 464 534 37,000  Level Albuquerque Center
Thu 01:17:59 PM 34.8250 -103.3178 148° Southeast 461 531 37,000  Level Albuquerque Center
Thu 01:19:01 PM 34.7139 -103.2317 147° Southeast 464 534 37,000  Level Albuquerque Center
Thu 01:20:03 PM 34.6050 -103.1458 147° Southeast 463 533 37,000  Level Albuquerque Center
Thu 01:21:05 PM 34.4950 -103.0617 148° Southeast 462 532 37,000  Level Albuquerque Center
Thu 01:22:07 PM 34.3831 -102.9758 148° Southeast 466 536 37,000  Level Albuquerque Center
Thu 01:23:09 PM 34.2744 -102.8925 148° Southeast 465 535 37,000  Level Albuquerque Center
Thu 01:24:11 PM 34.1631 -102.8078 148° Southeast 459 528 37,000  Level Albuquerque Center
Thu 01:25:13 PM 34.0544 -102.7267 148° Southeast 458 527 37,000  Level Albuquerque Center
Thu 01:26:15 PM 33.9469 -102.6417 147° Southeast 460 529 37,000  Level Albuquerque Center
Thu 01:27:17 PM 33.8408 -102.5608 148° Southeast 456 525 37,000  Level Albuquerque Center
Thu 01:28:19 PM 33.7111 -102.4644 148° Southeast 456 525 37,000  Level Albuquerque Center
Thu 01:29:21 PM 33.6044 -102.3839 148° Southeast 454 522 37,000  Level Albuquerque Center
Thu 01:30:23 PM 33.4972 -102.3025 148° Southeast 454 522 37,000  Level Albuquerque Center
Thu 01:31:25 PM 33.3883 -102.2208 148° Southeast 457 526 37,000  Level Albuquerque Center
Thu 01:32:27 PM 33.2825 -102.1425 148° Southeast 453 521 37,000  Level Albuquerque Center
Thu 01:33:25 PM 33.1586 -102.0533 149° Southeast 461 531 37,000  Level Fort Worth Center
Thu 01:34:25 PM 33.0633 -101.9792 147° Southeast 461 531 37,000  Level Fort Worth Center
Thu 01:35:25 PM 32.9675 -101.9122 150° Southeast 454 522 37,000  Level Fort Worth Center
Thu 01:36:25 PM 32.8519 -101.8225 147° Southeast 449 517 37,000  Level Fort Worth Center
Thu 01:37:25 PM 32.7439 -101.7431 148° Southeast 449 517 37,000  Level Fort Worth Center
Thu 01:38:25 PM 32.6258 -101.6583 149° Southeast 454 522 37,000  Level Fort Worth Center
Thu 01:39:26 PM 32.5178 -101.5794 148° Southeast 454 522 37,000  Level Fort Worth Center
Thu 01:40:25 PM 32.4164 -101.4886 143° Southeast 454 522 37,000  Level Fort Worth Center
Thu 01:41:25 PM 32.3414 -101.3572 124° Southeast 460 529 37,000  Level Fort Worth Center
Thu 01:42:25 PM 32.2678 -101.2339 125° Southeast 465 535 37,000  Level Fort Worth Center
Thu 01:43:26 PM 32.1911 -101.1519 138° Southeast 465 535 37,000  Level Fort Worth Center
Thu 01:44:25 PM 32.0669 -101.0367 142° Southeast 464 534 37,000  Level Fort Worth Center
Thu 01:45:25 PM 31.9672 -100.9542 145° Southeast 464 534 37,000  Level Fort Worth Center
Thu 01:46:25 PM 31.8611 -100.8644 144° Southeast 464 534 37,000  Level Fort Worth Center
Thu 01:47:25 PM 31.7569 -100.7753 144° Southeast 464 534 37,000  Level Fort Worth Center
Thu 01:48:26 PM 31.6550 -100.6883 144° Southeast 464 534 37,000  Level Fort Worth Center
Thu 01:49:26 PM 31.5486 -100.6017 145° Southeast 464 534 37,000 -50 Level Fort Worth Center
Thu 01:50:26 PM 31.4422 -100.5131 145° Southeast 457 526 36,900  Descending Fort Worth Center
Thu 01:51:26 PM 31.3553 -100.3933 130° Southeast 463 533 37,000 57 Climbing Fort Worth Center
Thu 01:52:12 PM 31.3114 -100.2678 112° Southeast 519 597 37,000  Level Houston Center
Thu 01:53:15 PM 31.2581 -100.1092 111° Southeast 523 602 37,000  Level Houston Center
Thu 01:54:17 PM 31.2039 -99.9492 112° Southeast 526 605 37,000  Level Houston Center
Thu 01:55:19 PM 31.1481 -99.7894 112° Southeast 529 609 37,000  Level Houston Center
Thu 01:56:21 PM 31.0931 -99.6303 112° Southeast 529 609 37,000  Level Houston Center
Thu 01:57:23 PM 31.0392 -99.4722 112° Southeast 526 605 37,000  Level Houston Center
Thu 01:58:25 PM 30.9711 -99.2803 112° Southeast 531 611 37,000  Level Houston Center
Thu 01:59:27 PM 30.9150 -99.1192 112° Southeast 528 608 37,000  Level Houston Center
Thu 02:00:30 PM 30.8592 -98.9611 112° Southeast 525 604 37,000  Level Houston Center
Thu 02:01:32 PM 30.8056 -98.8014 111° Southeast 526 605 37,000  Level Houston Center
Thu 02:02:34 PM 30.8006 -98.6283 92° East 536 617 37,000 -774 Level Houston Center
Thu 02:03:36 PM 30.8039 -98.4544 89° East 534 615 35,400 -1,742 Descending Houston Center
Thu 02:04:38 PM 30.8064 -98.2836 89° East 524 603 33,400 -1,935 Descending Houston Center
Thu 02:05:40 PM 30.8094 -98.0917 89° East 508 585 31,400 -1,935 Descending Houston Center
Thu 02:06:42 PM 30.8108 -97.9317 89° East 496 571 29,400 -1,152 Descending Houston Center
Thu 02:07:45 PM 30.8142 -97.7686 89° East 499 574 29,000 -192 Descending Houston Center
Thu 02:08:47 PM 30.8156 -97.6031 89° East 508 585 29,000  Level Houston Center
Thu 02:09:49 PM 30.8164 -97.4403 90° East 504 580 29,000  Level Houston Center
Thu 02:10:51 PM 30.8189 -97.2503 89° East 510 587 29,000 -48 Level Houston Center
Thu 02:11:53 PM 30.8211 -97.0881 89° East 507 583 28,900 -1,258 Descending Houston Center
Thu 02:12:55 PM 30.7942 -96.9333 101° East 488 562 26,400 -2,274 Descending Houston Center
Thu 02:13:57 PM 30.7511 -96.7947 110° East 462 532 24,200 -1,935 Descending Houston Center
Thu 02:14:59 PM 30.7075 -96.6578 110° East 456 525 22,400 -2,160 Descending Houston Center
Thu 02:16:02 PM 30.6661 -96.5269 110° East 434 499 19,700 -2,400 Descending Houston Center
Thu 02:17:04 PM 30.6256 -96.3911 109° East 384 442 17,400 -2,032 Descending Houston Center
Thu 02:18:06 PM 30.5894 -96.2803 111° Southeast 368 423 15,500 -1,875 Descending Houston Center
Thu 02:18:24 PM 30.5783 -96.2461 111° Southeast 358 412 14,900 -1,839 Descending Houston Center
Thu 02:19:08 PM 30.5536 -96.1733 112° Southeast 355 409 13,600 -1,967 Descending Houston Center
Thu 02:19:25 PM 30.5422 -96.1411 112° Southeast 352 405 12,900 -1,935 Descending Houston Center
Thu 02:20:10 PM 30.5197 -96.0675 110° East 349 402 11,600 -1,570 Descending Houston Center
Thu 02:21:12 PM 30.4853 -95.9667 112° Southeast 343 395 10,100 -768 Descending Houston Center
Thu 02:22:15 PM 30.4558 -95.8725 110° East 311 358 10,000 -240 Descending Houston Center
Thu 02:23:17 PM 30.3864 -95.8431 160° South 282 325 9,600 -774 Descending Houston Center
Thu 02:24:19 PM 30.2947 -95.8322 174° South 275 316 8,400 -774 Descending Houston Center
Thu 02:25:21 PM 30.2247 -95.8200 171° South 260 299 8,000 -387 Descending Houston Center
Thu 02:26:23 PM 30.1653 -95.8092 171° South 222 255 7,600 -484 Descending Houston Center
Thu 02:27:25 PM 30.1086 -95.8000 172° South 207 238 7,000 -290 Descending Houston Center
Thu 02:28:27 PM 30.0600 -95.7942 174° South 180 207 7,000 -480 Level Houston Center
Thu 02:29:30 PM 30.0239 -95.7425 129° Southeast 178 205 6,000 -864 Descending Houston Center
Thu 02:30:32 PM 29.9972 -95.6939 122° Southeast 178 205 5,200 -581 Descending Houston Center
Thu 02:31:34 PM 29.9928 -95.6344 95° East 189 217 4,800 -726 Descending Houston Center
Thu 02:32:36 PM 29.9928 -95.5722 90° East 194 223 3,700 -968 Descending Houston Center
Thu 02:33:38 PM 29.9936 -95.5128 89° East 190 219 2,800 -871 Descending Houston Center

Login

Don't have an account? Register now (free) for customized features, flight alerts, and more!